sensor_id;sensor_type;location;lat;lon;timestamp;P1;durP1;ratioP1;P2;durP2;ratioP2
12348;SDS011;5974;42.710;27.258;2022-10-31T00:01:35;4.87;;;3.30;;
12348;SDS011;5974;42.710;27.258;2022-10-31T00:04:06;4.23;;;3.43;;
12348;SDS011;5974;42.710;27.258;2022-10-31T00:06:32;7.17;;;3.40;;
12348;SDS011;5974;42.710;27.258;2022-10-31T00:08:59;11.77;;;4.20;;
12348;SDS011;5974;42.710;27.258;2022-10-31T00:11:26;7.03;;;3.80;;
12348;SDS011;5974;42.710;27.258;2022-10-31T00:13:53;6.77;;;3.47;;
12348;SDS011;5974;42.710;27.258;2022-10-31T00:16:20;6.30;;;3.37;;
12348;SDS011;5974;42.710;27.258;2022-10-31T00:18:47;9.03;;;5.30;;
12348;SDS011;5974;42.710;27.258;2022-10-31T00:21:15;14.00;;;7.73;;
12348;SDS011;5974;42.710;27.258;2022-10-31T00:23:42;10.57;;;5.53;;
12348;SDS011;5974;42.710;27.258;2022-10-31T00:26:09;4.47;;;3.80;;
12348;SDS011;5974;42.710;27.258;2022-10-31T00:28:35;5.87;;;3.80;;
12348;SDS011;5974;42.710;27.258;2022-10-31T00:31:03;14.53;;;8.70;;
12348;SDS011;5974;42.710;27.258;2022-10-31T00:33:30;8.33;;;5.60;;
12348;SDS011;5974;42.710;27.258;2022-10-31T00:35:56;5.63;;;3.40;;
12348;SDS011;5974;42.710;27.258;2022-10-31T00:38:24;8.40;;;4.00;;
12348;SDS011;5974;42.710;27.258;2022-10-31T00:40:51;4.97;;;3.93;;
12348;SDS011;5974;42.710;27.258;2022-10-31T00:43:18;5.77;;;3.57;;
12348;SDS011;5974;42.710;27.258;2022-10-31T00:45:44;6.13;;;3.40;;
12348;SDS011;5974;42.710;27.258;2022-10-31T00:48:11;5.40;;;3.80;;
12348;SDS011;5974;42.710;27.258;2022-10-31T00:50:37;8.13;;;4.30;;
12348;SDS011;5974;42.710;27.258;2022-10-31T00:53:04;7.23;;;3.67;;
12348;SDS011;5974;42.710;27.258;2022-10-31T00:55:32;6.27;;;4.80;;
12348;SDS011;5974;42.710;27.258;2022-10-31T00:57:59;7.20;;;4.10;;
12348;SDS011;5974;42.710;27.258;2022-10-31T01:00:25;10.00;;;4.93;;
12348;SDS011;5974;42.710;27.258;2022-10-31T01:02:52;11.47;;;4.60;;
12348;SDS011;5974;42.710;27.258;2022-10-31T01:05:19;5.97;;;4.40;;
12348;SDS011;5974;42.710;27.258;2022-10-31T01:07:45;9.87;;;4.63;;
12348;SDS011;5974;42.710;27.258;2022-10-31T01:10:12;12.43;;;7.87;;
12348;SDS011;5974;42.710;27.258;2022-10-31T01:12:40;7.20;;;4.67;;
12348;SDS011;5974;42.710;27.258;2022-10-31T01:15:07;9.27;;;5.47;;
12348;SDS011;5974;42.710;27.258;2022-10-31T01:17:34;5.90;;;5.30;;
12348;SDS011;5974;42.710;27.258;2022-10-31T01:20:01;8.70;;;5.30;;
12348;SDS011;5974;42.710;27.258;2022-10-31T01:22:27;6.60;;;5.50;;
12348;SDS011;5974;42.710;27.258;2022-10-31T01:24:54;10.33;;;5.43;;
12348;SDS011;5974;42.710;27.258;2022-10-31T01:27:20;9.67;;;5.93;;
12348;SDS011;5974;42.710;27.258;2022-10-31T01:29:48;23.53;;;6.10;;
12348;SDS011;5974;42.710;27.258;2022-10-31T01:32:15;9.83;;;5.33;;
12348;SDS011;5974;42.710;27.258;2022-10-31T01:34:42;6.73;;;5.50;;
12348;SDS011;5974;42.710;27.258;2022-10-31T01:37:08;8.37;;;5.90;;
12348;SDS011;5974;42.710;27.258;2022-10-31T01:39:35;8.47;;;6.47;;
12348;SDS011;5974;42.710;27.258;2022-10-31T01:42:01;7.07;;;5.10;;
12348;SDS011;5974;42.710;27.258;2022-10-31T01:47:15;10.07;;;4.40;;
12348;SDS011;5974;42.710;27.258;2022-10-31T01:49:45;4.17;;;3.57;;
12348;SDS011;5974;42.710;27.258;2022-10-31T01:52:14;3.83;;;2.50;;
12348;SDS011;5974;42.710;27.258;2022-10-31T01:54:43;3.37;;;2.80;;
12348;SDS011;5974;42.710;27.258;2022-10-31T01:57:12;8.50;;;3.20;;
12348;SDS011;5974;42.710;27.258;2022-10-31T01:59:40;3.60;;;2.83;;
12348;SDS011;5974;42.710;27.258;2022-10-31T02:02:09;4.60;;;2.47;;
12348;SDS011;5974;42.710;27.258;2022-10-31T02:04:37;11.50;;;3.80;;
12348;SDS011;5974;42.710;27.258;2022-10-31T02:07:05;3.80;;;3.30;;
12348;SDS011;5974;42.710;27.258;2022-10-31T02:09:32;6.07;;;3.80;;
12348;SDS011;5974;42.710;27.258;2022-10-31T02:12:00;2.83;;;2.57;;
12348;SDS011;5974;42.710;27.258;2022-10-31T02:14:27;4.43;;;2.70;;
12348;SDS011;5974;42.710;27.258;2022-10-31T02:16:55;4.50;;;2.60;;
12348;SDS011;5974;42.710;27.258;2022-10-31T02:19:24;4.37;;;2.70;;
12348;SDS011;5974;42.710;27.258;2022-10-31T02:21:57;5.87;;;2.50;;
12348;SDS011;5974;42.710;27.258;2022-10-31T02:24:33;4.90;;;2.70;;
12348;SDS011;5974;42.710;27.258;2022-10-31T02:27:07;4.13;;;2.73;;
12348;SDS011;5974;42.710;27.258;2022-10-31T02:29:50;4.10;;;2.53;;
12348;SDS011;5974;42.710;27.258;2022-10-31T02:32:21;3.10;;;2.33;;
12348;SDS011;5974;42.710;27.258;2022-10-31T02:34:51;5.07;;;2.70;;
12348;SDS011;5974;42.710;27.258;2022-10-31T02:37:19;3.37;;;2.87;;
12348;SDS011;5974;42.710;27.258;2022-10-31T02:39:49;5.47;;;2.80;;
12348;SDS011;5974;42.710;27.258;2022-10-31T02:42:21;6.20;;;2.67;;
12348;SDS011;5974;42.710;27.258;2022-10-31T02:44:49;4.83;;;2.70;;
12348;SDS011;5974;42.710;27.258;2022-10-31T02:47:18;6.60;;;3.87;;
12348;SDS011;5974;42.710;27.258;2022-10-31T02:49:48;3.33;;;3.00;;
12348;SDS011;5974;42.710;27.258;2022-10-31T02:52:17;4.90;;;3.07;;
12348;SDS011;5974;42.710;27.258;2022-10-31T02:54:44;4.57;;;2.80;;
12348;SDS011;5974;42.710;27.258;2022-10-31T02:57:11;2.70;;;2.40;;
12348;SDS011;5974;42.710;27.258;2022-10-31T02:59:39;2.83;;;2.50;;
12348;SDS011;5974;42.710;27.258;2022-10-31T03:04:56;3.40;;;3.10;;
12348;SDS011;5974;42.710;27.258;2022-10-31T03:07:28;9.67;;;5.17;;
12348;SDS011;5974;42.710;27.258;2022-10-31T03:10:00;7.50;;;4.40;;
12348;SDS011;5974;42.710;27.258;2022-10-31T03:12:30;5.47;;;4.40;;
12348;SDS011;5974;42.710;27.258;2022-10-31T03:15:01;6.80;;;4.70;;
12348;SDS011;5974;42.710;27.258;2022-10-31T03:17:32;5.97;;;3.10;;
12348;SDS011;5974;42.710;27.258;2022-10-31T03:20:01;4.43;;;3.47;;
12348;SDS011;5974;42.710;27.258;2022-10-31T03:22:29;7.00;;;3.07;;
12348;SDS011;5974;42.710;27.258;2022-10-31T03:24:58;3.10;;;2.80;;
12348;SDS011;5974;42.710;27.258;2022-10-31T03:27:26;4.33;;;3.20;;
12348;SDS011;5974;42.710;27.258;2022-10-31T03:29:54;4.33;;;3.27;;
12348;SDS011;5974;42.710;27.258;2022-10-31T03:32:22;6.57;;;3.40;;
12348;SDS011;5974;42.710;27.258;2022-10-31T03:34:49;5.07;;;3.97;;
12348;SDS011;5974;42.710;27.258;2022-10-31T03:37:18;5.50;;;3.10;;
12348;SDS011;5974;42.710;27.258;2022-10-31T03:39:46;6.97;;;3.17;;
12348;SDS011;5974;42.710;27.258;2022-10-31T03:42:15;7.47;;;3.30;;
12348;SDS011;5974;42.710;27.258;2022-10-31T03:44:44;8.47;;;3.97;;
12348;SDS011;5974;42.710;27.258;2022-10-31T03:47:12;6.00;;;3.80;;
12348;SDS011;5974;42.710;27.258;2022-10-31T03:49:40;4.70;;;3.50;;
12348;SDS011;5974;42.710;27.258;2022-10-31T03:52:08;4.37;;;2.90;;
12348;SDS011;5974;42.710;27.258;2022-10-31T03:54:40;7.33;;;3.57;;
12348;SDS011;5974;42.710;27.258;2022-10-31T03:57:10;8.77;;;4.23;;
12348;SDS011;5974;42.710;27.258;2022-10-31T03:59:40;6.80;;;3.67;;
12348;SDS011;5974;42.710;27.258;2022-10-31T04:02:10;4.63;;;3.73;;
12348;SDS011;5974;42.710;27.258;2022-10-31T04:04:37;7.47;;;3.80;;
12348;SDS011;5974;42.710;27.258;2022-10-31T04:07:04;5.03;;;4.20;;
12348;SDS011;5974;42.710;27.258;2022-10-31T04:09:32;9.03;;;4.23;;
12348;SDS011;5974;42.710;27.258;2022-10-31T04:12:01;10.83;;;4.37;;
12348;SDS011;5974;42.710;27.258;2022-10-31T04:14:31;8.03;;;4.70;;
12348;SDS011;5974;42.710;27.258;2022-10-31T04:16:58;10.77;;;4.97;;
12348;SDS011;5974;42.710;27.258;2022-10-31T04:19:25;9.07;;;4.40;;
12348;SDS011;5974;42.710;27.258;2022-10-31T04:21:52;5.57;;;3.90;;
12348;SDS011;5974;42.710;27.258;2022-10-31T04:24:18;4.50;;;3.30;;
12348;SDS011;5974;42.710;27.258;2022-10-31T04:26:45;7.87;;;3.20;;
12348;SDS011;5974;42.710;27.258;2022-10-31T04:29:13;6.63;;;3.07;;
12348;SDS011;5974;42.710;27.258;2022-10-31T04:31:39;6.03;;;3.40;;
12348;SDS011;5974;42.710;27.258;2022-10-31T04:34:06;5.30;;;3.10;;
12348;SDS011;5974;42.710;27.258;2022-10-31T04:36:33;6.33;;;3.27;;
12348;SDS011;5974;42.710;27.258;2022-10-31T04:38:59;5.10;;;3.07;;
12348;SDS011;5974;42.710;27.258;2022-10-31T04:41:26;7.37;;;3.20;;
12348;SDS011;5974;42.710;27.258;2022-10-31T04:43:52;4.63;;;3.30;;
12348;SDS011;5974;42.710;27.258;2022-10-31T04:46:20;4.53;;;3.33;;
12348;SDS011;5974;42.710;27.258;2022-10-31T04:48:47;4.90;;;3.10;;
12348;SDS011;5974;42.710;27.258;2022-10-31T04:51:14;8.53;;;3.47;;
12348;SDS011;5974;42.710;27.258;2022-10-31T04:53:40;4.57;;;3.20;;
12348;SDS011;5974;42.710;27.258;2022-10-31T04:56:07;4.40;;;3.30;;
12348;SDS011;5974;42.710;27.258;2022-10-31T04:58:34;3.83;;;3.00;;
12348;SDS011;5974;42.710;27.258;2022-10-31T05:01:00;6.33;;;2.90;;
12348;SDS011;5974;42.710;27.258;2022-10-31T05:03:28;5.70;;;3.43;;
12348;SDS011;5974;42.710;27.258;2022-10-31T05:05:55;6.53;;;3.23;;
12348;SDS011;5974;42.710;27.258;2022-10-31T05:08:21;4.27;;;3.20;;
12348;SDS011;5974;42.710;27.258;2022-10-31T05:10:48;5.00;;;3.43;;
12348;SDS011;5974;42.710;27.258;2022-10-31T05:13:15;6.67;;;3.37;;
12348;SDS011;5974;42.710;27.258;2022-10-31T05:15:42;4.60;;;2.93;;
12348;SDS011;5974;42.710;27.258;2022-10-31T05:18:09;4.50;;;3.00;;
12348;SDS011;5974;42.710;27.258;2022-10-31T05:20:36;15.90;;;3.60;;
12348;SDS011;5974;42.710;27.258;2022-10-31T05:23:03;4.80;;;3.43;;
12348;SDS011;5974;42.710;27.258;2022-10-31T05:25:30;3.53;;;3.17;;
12348;SDS011;5974;42.710;27.258;2022-10-31T05:27:56;5.67;;;3.57;;
12348;SDS011;5974;42.710;27.258;2022-10-31T05:30:24;6.73;;;3.30;;
12348;SDS011;5974;42.710;27.258;2022-10-31T05:32:51;5.10;;;3.30;;
12348;SDS011;5974;42.710;27.258;2022-10-31T05:35:19;7.07;;;3.23;;
12348;SDS011;5974;42.710;27.258;2022-10-31T05:37:47;4.90;;;3.13;;
12348;SDS011;5974;42.710;27.258;2022-10-31T05:40:14;7.73;;;3.20;;
12348;SDS011;5974;42.710;27.258;2022-10-31T05:42:41;6.37;;;3.63;;
12348;SDS011;5974;42.710;27.258;2022-10-31T05:45:09;9.57;;;3.93;;
12348;SDS011;5974;42.710;27.258;2022-10-31T05:47:35;5.30;;;3.40;;
12348;SDS011;5974;42.710;27.258;2022-10-31T05:50:02;5.57;;;3.20;;
12348;SDS011;5974;42.710;27.258;2022-10-31T05:52:29;4.73;;;3.33;;
12348;SDS011;5974;42.710;27.258;2022-10-31T05:54:57;6.50;;;3.57;;
12348;SDS011;5974;42.710;27.258;2022-10-31T05:57:24;8.70;;;3.40;;
12348;SDS011;5974;42.710;27.258;2022-10-31T05:59:50;5.33;;;3.50;;
12348;SDS011;5974;42.710;27.258;2022-10-31T06:02:18;4.97;;;3.43;;
12348;SDS011;5974;42.710;27.258;2022-10-31T06:04:44;6.37;;;3.10;;
12348;SDS011;5974;42.710;27.258;2022-10-31T06:07:11;5.90;;;3.57;;
12348;SDS011;5974;42.710;27.258;2022-10-31T06:09:37;9.33;;;3.67;;
12348;SDS011;5974;42.710;27.258;2022-10-31T06:12:05;7.60;;;3.43;;
12348;SDS011;5974;42.710;27.258;2022-10-31T06:14:32;5.50;;;3.13;;
12348;SDS011;5974;42.710;27.258;2022-10-31T06:16:58;8.10;;;3.20;;
12348;SDS011;5974;42.710;27.258;2022-10-31T06:19:25;4.13;;;3.23;;
12348;SDS011;5974;42.710;27.258;2022-10-31T06:21:51;6.30;;;3.53;;
12348;SDS011;5974;42.710;27.258;2022-10-31T06:24:18;3.30;;;3.00;;
12348;SDS011;5974;42.710;27.258;2022-10-31T06:26:45;6.90;;;3.60;;
12348;SDS011;5974;42.710;27.258;2022-10-31T06:29:13;3.87;;;3.43;;
12348;SDS011;5974;42.710;27.258;2022-10-31T06:31:39;5.63;;;3.50;;
12348;SDS011;5974;42.710;27.258;2022-10-31T06:34:06;7.37;;;3.30;;
12348;SDS011;5974;42.710;27.258;2022-10-31T06:36:32;7.03;;;3.57;;
12348;SDS011;5974;42.710;27.258;2022-10-31T06:38:59;4.47;;;3.30;;
12348;SDS011;5974;42.710;27.258;2022-10-31T06:41:26;6.47;;;3.70;;
12348;SDS011;5974;42.710;27.258;2022-10-31T06:43:53;5.33;;;4.10;;
12348;SDS011;5974;42.710;27.258;2022-10-31T06:46:21;9.27;;;6.73;;
12348;SDS011;5974;42.710;27.258;2022-10-31T06:48:47;7.67;;;5.00;;
12348;SDS011;5974;42.710;27.258;2022-10-31T06:51:14;24.53;;;17.00;;
12348;SDS011;5974;42.710;27.258;2022-10-31T06:53:40;6.33;;;4.47;;
12348;SDS011;5974;42.710;27.258;2022-10-31T06:56:07;10.70;;;4.03;;
12348;SDS011;5974;42.710;27.258;2022-10-31T06:58:33;4.53;;;3.40;;
12348;SDS011;5974;42.710;27.258;2022-10-31T07:01:00;7.57;;;4.53;;
12348;SDS011;5974;42.710;27.258;2022-10-31T07:03:28;7.57;;;4.23;;
12348;SDS011;5974;42.710;27.258;2022-10-31T07:05:55;4.47;;;3.60;;
12348;SDS011;5974;42.710;27.258;2022-10-31T07:08:21;8.07;;;4.20;;
12348;SDS011;5974;42.710;27.258;2022-10-31T07:10:50;6.13;;;3.60;;
12348;SDS011;5974;42.710;27.258;2022-10-31T07:13:20;5.93;;;3.90;;
12348;SDS011;5974;42.710;27.258;2022-10-31T07:15:50;9.27;;;3.80;;
12348;SDS011;5974;42.710;27.258;2022-10-31T07:18:17;5.87;;;3.90;;
12348;SDS011;5974;42.710;27.258;2022-10-31T07:20:45;7.47;;;3.97;;
12348;SDS011;5974;42.710;27.258;2022-10-31T07:23:12;5.30;;;4.00;;
12348;SDS011;5974;42.710;27.258;2022-10-31T07:25:39;4.80;;;3.80;;
12348;SDS011;5974;42.710;27.258;2022-10-31T07:28:06;4.43;;;3.90;;
12348;SDS011;5974;42.710;27.258;2022-10-31T07:30:32;7.33;;;4.10;;
12348;SDS011;5974;42.710;27.258;2022-10-31T07:32:59;6.10;;;4.30;;
12348;SDS011;5974;42.710;27.258;2022-10-31T07:35:27;5.03;;;3.93;;
12348;SDS011;5974;42.710;27.258;2022-10-31T07:37:55;8.77;;;4.73;;
12348;SDS011;5974;42.710;27.258;2022-10-31T07:40:22;6.90;;;4.10;;
12348;SDS011;5974;42.710;27.258;2022-10-31T07:42:49;7.63;;;4.90;;
12348;SDS011;5974;42.710;27.258;2022-10-31T07:45:18;10.53;;;4.60;;
12348;SDS011;5974;42.710;27.258;2022-10-31T07:47:45;9.17;;;4.37;;
12348;SDS011;5974;42.710;27.258;2022-10-31T07:50:13;6.10;;;4.10;;
12348;SDS011;5974;42.710;27.258;2022-10-31T07:52:40;6.70;;;4.00;;
12348;SDS011;5974;42.710;27.258;2022-10-31T07:55:08;5.77;;;4.00;;
12348;SDS011;5974;42.710;27.258;2022-10-31T07:57:35;8.17;;;4.20;;
12348;SDS011;5974;42.710;27.258;2022-10-31T08:00:02;8.43;;;4.60;;
12348;SDS011;5974;42.710;27.258;2022-10-31T08:02:29;5.90;;;4.47;;
12348;SDS011;5974;42.710;27.258;2022-10-31T08:04:56;8.13;;;4.50;;
12348;SDS011;5974;42.710;27.258;2022-10-31T08:07:22;8.87;;;4.30;;
12348;SDS011;5974;42.710;27.258;2022-10-31T08:09:49;8.07;;;4.53;;
12348;SDS011;5974;42.710;27.258;2022-10-31T08:12:17;7.10;;;4.77;;
12348;SDS011;5974;42.710;27.258;2022-10-31T08:14:43;6.77;;;4.47;;
12348;SDS011;5974;42.710;27.258;2022-10-31T08:17:10;13.90;;;4.90;;
12348;SDS011;5974;42.710;27.258;2022-10-31T08:19:36;13.20;;;4.80;;
12348;SDS011;5974;42.710;27.258;2022-10-31T08:22:03;7.37;;;4.63;;
12348;SDS011;5974;42.710;27.258;2022-10-31T08:24:30;10.13;;;4.73;;
12348;SDS011;5974;42.710;27.258;2022-10-31T08:26:56;9.17;;;4.50;;
12348;SDS011;5974;42.710;27.258;2022-10-31T08:29:24;11.10;;;5.00;;
12348;SDS011;5974;42.710;27.258;2022-10-31T08:31:51;9.10;;;4.90;;
12348;SDS011;5974;42.710;27.258;2022-10-31T08:34:17;9.87;;;5.80;;
12348;SDS011;5974;42.710;27.258;2022-10-31T08:36:44;10.80;;;5.67;;
12348;SDS011;5974;42.710;27.258;2022-10-31T08:39:11;15.00;;;9.63;;
12348;SDS011;5974;42.710;27.258;2022-10-31T08:41:38;10.60;;;5.63;;
12348;SDS011;5974;42.710;27.258;2022-10-31T08:44:04;7.23;;;4.63;;
12348;SDS011;5974;42.710;27.258;2022-10-31T08:46:32;8.40;;;5.47;;
12348;SDS011;5974;42.710;27.258;2022-10-31T08:48:59;6.87;;;4.80;;
12348;SDS011;5974;42.710;27.258;2022-10-31T08:51:26;8.03;;;5.00;;
12348;SDS011;5974;42.710;27.258;2022-10-31T08:53:52;8.50;;;4.97;;
12348;SDS011;5974;42.710;27.258;2022-10-31T08:56:19;12.20;;;5.77;;
12348;SDS011;5974;42.710;27.258;2022-10-31T08:58:47;7.87;;;5.10;;
12348;SDS011;5974;42.710;27.258;2022-10-31T09:01:14;4.73;;;4.30;;
12348;SDS011;5974;42.710;27.258;2022-10-31T09:03:42;8.47;;;4.90;;
12348;SDS011;5974;42.710;27.258;2022-10-31T09:06:08;8.07;;;5.13;;
12348;SDS011;5974;42.710;27.258;2022-10-31T09:08:35;11.03;;;4.70;;
12348;SDS011;5974;42.710;27.258;2022-10-31T09:11:02;7.37;;;4.90;;
12348;SDS011;5974;42.710;27.258;2022-10-31T09:13:29;8.27;;;4.60;;
12348;SDS011;5974;42.710;27.258;2022-10-31T09:15:56;12.10;;;5.80;;
12348;SDS011;5974;42.710;27.258;2022-10-31T09:18:23;6.77;;;4.87;;
12348;SDS011;5974;42.710;27.258;2022-10-31T09:20:51;9.37;;;5.00;;
12348;SDS011;5974;42.710;27.258;2022-10-31T09:23:18;10.13;;;5.23;;
12348;SDS011;5974;42.710;27.258;2022-10-31T09:25:45;7.57;;;4.50;;
12348;SDS011;5974;42.710;27.258;2022-10-31T09:28:13;10.73;;;5.13;;
12348;SDS011;5974;42.710;27.258;2022-10-31T09:30:40;7.93;;;4.70;;
12348;SDS011;5974;42.710;27.258;2022-10-31T09:33:08;10.90;;;5.10;;
12348;SDS011;5974;42.710;27.258;2022-10-31T09:35:35;9.13;;;5.10;;
12348;SDS011;5974;42.710;27.258;2022-10-31T09:38:04;10.57;;;4.80;;
12348;SDS011;5974;42.710;27.258;2022-10-31T09:40:32;5.87;;;4.40;;
12348;SDS011;5974;42.710;27.258;2022-10-31T09:43:02;9.77;;;5.03;;
12348;SDS011;5974;42.710;27.258;2022-10-31T09:45:31;7.97;;;5.10;;
12348;SDS011;5974;42.710;27.258;2022-10-31T09:48:03;9.83;;;5.20;;
12348;SDS011;5974;42.710;27.258;2022-10-31T09:50:35;7.63;;;4.23;;
12348;SDS011;5974;42.710;27.258;2022-10-31T09:53:06;5.73;;;4.40;;
12348;SDS011;5974;42.710;27.258;2022-10-31T09:55:35;9.27;;;4.70;;
12348;SDS011;5974;42.710;27.258;2022-10-31T09:58:03;8.97;;;4.93;;
12348;SDS011;5974;42.710;27.258;2022-10-31T10:00:30;7.60;;;4.80;;
12348;SDS011;5974;42.710;27.258;2022-10-31T10:03:00;7.43;;;5.03;;
12348;SDS011;5974;42.710;27.258;2022-10-31T10:05:30;10.67;;;5.17;;
12348;SDS011;5974;42.710;27.258;2022-10-31T10:08:00;8.10;;;4.60;;
12348;SDS011;5974;42.710;27.258;2022-10-31T10:10:41;12.00;;;5.17;;
12348;SDS011;5974;42.710;27.258;2022-10-31T10:15:55;7.63;;;4.40;;
12348;SDS011;5974;42.710;27.258;2022-10-31T10:18:25;13.00;;;5.40;;
12348;SDS011;5974;42.710;27.258;2022-10-31T10:20:58;6.77;;;4.60;;
12348;SDS011;5974;42.710;27.258;2022-10-31T10:23:30;7.73;;;4.83;;
12348;SDS011;5974;42.710;27.258;2022-10-31T10:26:04;9.73;;;5.10;;
12348;SDS011;5974;42.710;27.258;2022-10-31T10:28:36;9.23;;;4.83;;
12348;SDS011;5974;42.710;27.258;2022-10-31T10:31:07;9.03;;;4.67;;
12348;SDS011;5974;42.710;27.258;2022-10-31T10:33:35;10.67;;;5.00;;
12348;SDS011;5974;42.710;27.258;2022-10-31T10:36:03;6.27;;;4.70;;
12348;SDS011;5974;42.710;27.258;2022-10-31T10:38:32;10.90;;;5.13;;
12348;SDS011;5974;42.710;27.258;2022-10-31T10:41:03;9.33;;;4.57;;
12348;SDS011;5974;42.710;27.258;2022-10-31T10:43:32;8.57;;;5.00;;
12348;SDS011;5974;42.710;27.258;2022-10-31T10:46:05;13.80;;;4.90;;
12348;SDS011;5974;42.710;27.258;2022-10-31T10:48:57;7.33;;;4.37;;
12348;SDS011;5974;42.710;27.258;2022-10-31T10:51:27;8.70;;;5.60;;
12348;SDS011;5974;42.710;27.258;2022-10-31T10:54:00;8.40;;;4.27;;
12348;SDS011;5974;42.710;27.258;2022-10-31T10:56:39;7.37;;;4.40;;
12348;SDS011;5974;42.710;27.258;2022-10-31T10:59:08;9.10;;;4.77;;
12348;SDS011;5974;42.710;27.258;2022-10-31T11:01:36;6.27;;;3.93;;
12348;SDS011;5974;42.710;27.258;2022-10-31T11:04:03;13.50;;;5.10;;
12348;SDS011;5974;42.710;27.258;2022-10-31T11:06:31;6.10;;;4.70;;
12348;SDS011;5974;42.710;27.258;2022-10-31T11:08:59;7.80;;;5.03;;
12348;SDS011;5974;42.710;27.258;2022-10-31T11:11:34;7.63;;;5.40;;
12348;SDS011;5974;42.710;27.258;2022-10-31T11:14:03;9.03;;;5.53;;
12348;SDS011;5974;42.710;27.258;2022-10-31T11:16:32;7.40;;;5.03;;
12348;SDS011;5974;42.710;27.258;2022-10-31T11:19:06;7.33;;;5.20;;
12348;SDS011;5974;42.710;27.258;2022-10-31T11:21:33;9.13;;;5.30;;
12348;SDS011;5974;42.710;27.258;2022-10-31T11:24:03;8.90;;;5.10;;
12348;SDS011;5974;42.710;27.258;2022-10-31T11:26:30;11.60;;;5.83;;
12348;SDS011;5974;42.710;27.258;2022-10-31T11:29:00;6.13;;;5.50;;
12348;SDS011;5974;42.710;27.258;2022-10-31T11:31:29;13.33;;;5.37;;
12348;SDS011;5974;42.710;27.258;2022-10-31T11:33:57;6.87;;;5.23;;
12348;SDS011;5974;42.710;27.258;2022-10-31T11:36:24;7.97;;;5.27;;
12348;SDS011;5974;42.710;27.258;2022-10-31T11:38:52;9.23;;;5.50;;
12348;SDS011;5974;42.710;27.258;2022-10-31T11:41:19;10.73;;;6.77;;
12348;SDS011;5974;42.710;27.258;2022-10-31T11:43:50;8.53;;;5.80;;
12348;SDS011;5974;42.710;27.258;2022-10-31T11:46:19;11.63;;;5.87;;
12348;SDS011;5974;42.710;27.258;2022-10-31T11:48:49;9.93;;;4.93;;
12348;SDS011;5974;42.710;27.258;2022-10-31T11:51:20;8.77;;;5.67;;
12348;SDS011;5974;42.710;27.258;2022-10-31T11:53:49;5.80;;;5.13;;
12348;SDS011;5974;42.710;27.258;2022-10-31T11:56:17;10.80;;;6.00;;
12348;SDS011;5974;42.710;27.258;2022-10-31T11:58:54;12.77;;;5.67;;
12348;SDS011;5974;42.710;27.258;2022-10-31T12:01:23;9.53;;;5.40;;
12348;SDS011;5974;42.710;27.258;2022-10-31T12:03:53;10.47;;;6.00;;
12348;SDS011;5974;42.710;27.258;2022-10-31T12:06:22;10.60;;;5.47;;
12348;SDS011;5974;42.710;27.258;2022-10-31T12:08:50;10.30;;;5.73;;
12348;SDS011;5974;42.710;27.258;2022-10-31T12:11:26;7.63;;;5.13;;
12348;SDS011;5974;42.710;27.258;2022-10-31T12:13:58;9.43;;;6.60;;
12348;SDS011;5974;42.710;27.258;2022-10-31T12:16:28;9.57;;;7.63;;
12348;SDS011;5974;42.710;27.258;2022-10-31T12:19:00;12.07;;;5.43;;
12348;SDS011;5974;42.710;27.258;2022-10-31T12:21:41;8.07;;;5.97;;
12348;SDS011;5974;42.710;27.258;2022-10-31T12:24:18;10.77;;;6.13;;
12348;SDS011;5974;42.710;27.258;2022-10-31T12:26:52;7.87;;;5.37;;
12348;SDS011;5974;42.710;27.258;2022-10-31T12:29:34;11.33;;;5.50;;
12348;SDS011;5974;42.710;27.258;2022-10-31T12:32:13;9.30;;;5.33;;
12348;SDS011;5974;42.710;27.258;2022-10-31T12:34:51;10.43;;;5.73;;
12348;SDS011;5974;42.710;27.258;2022-10-31T12:37:25;10.40;;;6.23;;
12348;SDS011;5974;42.710;27.258;2022-10-31T12:39:55;11.43;;;6.40;;
12348;SDS011;5974;42.710;27.258;2022-10-31T12:42:27;8.50;;;5.73;;
12348;SDS011;5974;42.710;27.258;2022-10-31T12:45:05;8.30;;;5.77;;
12348;SDS011;5974;42.710;27.258;2022-10-31T12:47:38;10.03;;;5.17;;
12348;SDS011;5974;42.710;27.258;2022-10-31T12:50:15;9.73;;;5.63;;
12348;SDS011;5974;42.710;27.258;2022-10-31T12:52:46;7.80;;;5.37;;
12348;SDS011;5974;42.710;27.258;2022-10-31T12:55:28;8.03;;;5.13;;
12348;SDS011;5974;42.710;27.258;2022-10-31T12:57:58;11.77;;;5.90;;
12348;SDS011;5974;42.710;27.258;2022-10-31T13:00:27;9.40;;;5.13;;
12348;SDS011;5974;42.710;27.258;2022-10-31T13:02:56;12.27;;;5.60;;
12348;SDS011;5974;42.710;27.258;2022-10-31T13:05:26;13.40;;;5.80;;
12348;SDS011;5974;42.710;27.258;2022-10-31T13:07:56;10.57;;;5.07;;
12348;SDS011;5974;42.710;27.258;2022-10-31T13:10:24;10.37;;;5.70;;
12348;SDS011;5974;42.710;27.258;2022-10-31T13:12:53;10.10;;;5.10;;
12348;SDS011;5974;42.710;27.258;2022-10-31T13:15:20;9.53;;;6.23;;
12348;SDS011;5974;42.710;27.258;2022-10-31T13:17:49;6.83;;;5.43;;
12348;SDS011;5974;42.710;27.258;2022-10-31T13:20:19;10.17;;;5.13;;
12348;SDS011;5974;42.710;27.258;2022-10-31T13:22:50;9.10;;;4.90;;
12348;SDS011;5974;42.710;27.258;2022-10-31T13:25:19;10.63;;;5.43;;
12348;SDS011;5974;42.710;27.258;2022-10-31T13:27:48;9.53;;;5.43;;
12348;SDS011;5974;42.710;27.258;2022-10-31T13:30:17;8.77;;;4.97;;
12348;SDS011;5974;42.710;27.258;2022-10-31T13:32:47;9.63;;;5.43;;
12348;SDS011;5974;42.710;27.258;2022-10-31T13:35:16;9.50;;;5.47;;
12348;SDS011;5974;42.710;27.258;2022-10-31T13:37:46;11.90;;;6.07;;
12348;SDS011;5974;42.710;27.258;2022-10-31T13:40:19;6.77;;;5.27;;
12348;SDS011;5974;42.710;27.258;2022-10-31T13:42:51;7.13;;;5.60;;
12348;SDS011;5974;42.710;27.258;2022-10-31T13:45:20;9.40;;;5.83;;
12348;SDS011;5974;42.710;27.258;2022-10-31T13:47:58;11.10;;;5.43;;
12348;SDS011;5974;42.710;27.258;2022-10-31T13:50:25;7.23;;;5.00;;
12348;SDS011;5974;42.710;27.258;2022-10-31T13:53:03;9.13;;;5.83;;
12348;SDS011;5974;42.710;27.258;2022-10-31T13:55:37;13.73;;;6.30;;
12348;SDS011;5974;42.710;27.258;2022-10-31T13:58:04;11.80;;;7.10;;
12348;SDS011;5974;42.710;27.258;2022-10-31T14:00:31;13.20;;;6.47;;
12348;SDS011;5974;42.710;27.258;2022-10-31T14:03:00;8.90;;;5.83;;
12348;SDS011;5974;42.710;27.258;2022-10-31T14:05:27;9.20;;;5.77;;
12348;SDS011;5974;42.710;27.258;2022-10-31T14:07:55;9.53;;;5.40;;
12348;SDS011;5974;42.710;27.258;2022-10-31T14:10:24;9.87;;;5.50;;
12348;SDS011;5974;42.710;27.258;2022-10-31T14:12:53;9.40;;;6.13;;
12348;SDS011;5974;42.710;27.258;2022-10-31T14:15:21;8.27;;;5.93;;
12348;SDS011;5974;42.710;27.258;2022-10-31T14:17:49;10.60;;;6.30;;
12348;SDS011;5974;42.710;27.258;2022-10-31T14:20:21;11.50;;;5.63;;
12348;SDS011;5974;42.710;27.258;2022-10-31T14:22:49;10.33;;;5.87;;
12348;SDS011;5974;42.710;27.258;2022-10-31T14:25:25;18.97;;;5.73;;
12348;SDS011;5974;42.710;27.258;2022-10-31T14:27:53;11.07;;;6.07;;
12348;SDS011;5974;42.710;27.258;2022-10-31T14:30:21;12.23;;;6.20;;
12348;SDS011;5974;42.710;27.258;2022-10-31T14:32:50;14.47;;;7.17;;
12348;SDS011;5974;42.710;27.258;2022-10-31T14:35:17;16.50;;;9.47;;
12348;SDS011;5974;42.710;27.258;2022-10-31T14:37:52;13.87;;;8.70;;
12348;SDS011;5974;42.710;27.258;2022-10-31T14:40:24;12.80;;;7.00;;
12348;SDS011;5974;42.710;27.258;2022-10-31T14:45:38;11.77;;;6.47;;
12348;SDS011;5974;42.710;27.258;2022-10-31T14:48:11;9.47;;;6.83;;
12348;SDS011;5974;42.710;27.258;2022-10-31T14:50:42;12.27;;;6.27;;
12348;SDS011;5974;42.710;27.258;2022-10-31T14:53:12;13.87;;;6.37;;
12348;SDS011;5974;42.710;27.258;2022-10-31T14:55:41;17.13;;;6.90;;
12348;SDS011;5974;42.710;27.258;2022-10-31T14:58:09;14.50;;;6.97;;
12348;SDS011;5974;42.710;27.258;2022-10-31T15:00:41;13.33;;;6.40;;
12348;SDS011;5974;42.710;27.258;2022-10-31T15:03:11;13.07;;;6.70;;
12348;SDS011;5974;42.710;27.258;2022-10-31T15:05:41;11.07;;;7.10;;